hero-logo

Top 15 Knowers of DGX Quest Diagnostics Inc - 2017-07-25

Rank Fund Result (K)
1 Carlson Capital L P $1,036
2 Picton Mahoney Asset Management $686
3 Ahl Partners Llp $635
4 Bowling Portfolio Management Llc $260
5 Bridgeway Capital Management Inc $153
6 Guggenheim Capital Llc $108
7 Paloma Partners Management Co $90
8 Northwestern Mutual Investment Management Company Llc $74
9 Elkhorn Investments Llc $72
10 Aperio Group Llc $59
11 361 Capital Llc $56
12 Bluefin Trading Llc $54
13 Asymmetry Capital Management L P $49
14 Piedmont Investment Advisors Llc $49
15 Edgestream Partners L P $42
Price Chart and News From Google Finance for DGX Quest Diagnostics Inc
Owner Date Shares Change Price Change Result (K)
361 Capital Llc 2017-03-31 8,959 $6.29 $56
Acrospire Investment Management Llc 2017-03-31 -1,400 $6.29 $-8
Ahl Partners Llp 2017-03-31 101,070 $6.29 $635
Allen Investment Management Llc 2017-03-31 -40,301 $6.29 $-253
Allsquare Wealth Management Llc 2017-03-31 299 $6.29 $1
Amalgamated Bank 2017-03-31 574 $6.29 $3
Amf Pensionsforsakring Ab 2017-03-31 -4,927 $6.29 $-30
Ancora Advisors Llc 2017-03-31 -375 $6.29 $-2
Aperio Group Llc 2017-03-31 9,507 $6.29 $59
Arrow Financial Corp 2017-03-31 0 $6.29 $0
A R T Advisors Llc 2017-03-31 -4,300 $6.29 $-27
Assetmark Inc 2017-03-31 -10,438 $6.29 $-65
Asymmetry Capital Management L P 2017-03-31 7,900 $6.29 $49
Auxier Asset Management 2017-03-31 -8,150 $6.29 $-51
Bahl Gaynor Inc 2017-03-31 409 $6.29 $2
Blair William Co Il 2017-03-31 2,401 $6.29 $15
Bluefin Trading Llc 2017-03-31 8,700 $6.29 $54
Bokf Na 2017-03-31 193 $6.29 $1
Boston Private Wealth Llc 2017-03-31 300 $6.29 $1
Bowling Portfolio Management Llc 2017-03-31 41,346 $6.29 $260
Bridgeway Capital Management Inc 2017-03-31 24,400 $6.29 $153
Brinker Capital Inc 2017-03-31 -3,186 $6.29 $-20
Brown Brothers Harriman Co 2017-03-31 82 $6.29 $0
California State Teachers Retirement System 2017-03-31 -13,000 $6.29 $-81
Carlson Capital L P 2017-03-31 164,825 $6.29 $1,036
Caxton Associates Lp 2017-03-31 6,700 $6.29 $42
Chartwell Investment Partners Llc 2017-03-31 0 $6.29 $0
Cognios Capital Llc 2017-03-31 -4,917 $6.29 $-30
Compton Capital Management Inc Ri 2017-03-31 0 $6.29 $0
Cornerstone Capital Management Holdings Llc 2017-03-31 -369 $6.29 $-2
Crawford Investment Counsel Inc 2017-03-31 -498,175 $6.29 $-3,133
D A Davidson Co 2017-03-31 -1,128 $6.29 $-7
Dana Investment Advisors Inc 2017-03-31 -3,574 $6.29 $-22
Davidson Investment Advisors 2017-03-31 0 $6.29 $0
Delphi Management Inc Ma 2017-03-31 -21,059 $6.29 $-132
Dorazio Associates Inc 2017-03-31 0 $6.29 $0
Earnest Partners Llc 2017-03-31 -61 $6.29 $0
Edgestream Partners L P 2017-03-31 6,769 $6.29 $42
Edmond De Rothschild Holding S A 2017-03-31 0 $6.29 $0
Elkhorn Investments Llc 2017-03-31 11,488 $6.29 $72
Ellington Management Group Llc 2017-03-31 1,500 $6.29 $9
Envestnet Asset Management Inc 2017-03-31 -5,261 $6.29 $-33
Fairpointe Capital Llc 2017-03-31 -48,885 $6.29 $-307
Fdx Advisors Inc 2017-03-31 529 $6.29 $3
First Republic Investment Management Inc 2017-03-31 1,666 $6.29 $10
First Wilshire Securities Management Inc 2017-03-31 0 $6.29 $0
Focused Wealth Management Inc 2017-03-31 0 $6.29 $0
Glassman Wealth Services 2017-03-31 0 $6.29 $0
Glen Harbor Capital Management Llc 2017-03-31 -20,272 $6.29 $-127
Glg Llc 2017-03-31 -20 $6.29 $0
Godshalk Welsh Capital Management Inc 2017-03-31 0 $6.29 $0
Gotham Asset Management Llc 2017-03-31 -53,394 $6.29 $-335
Gsa Capital Partners Llp 2017-03-31 6,530 $6.29 $41
Guggenheim Capital Llc 2017-03-31 17,258 $6.29 $108
Healthcor Management L P 2017-03-31 -1,046,018 $6.29 $-6,579
Horizon Kinetics Llc 2017-03-31 -100 $6.29 $0
Hutchin Hill Capital Lp 2017-03-31 6,000 $6.29 $37
Ifp Advisors Inc 2017-03-31 407 $6.29 $2
Iht Wealth Management Llc 2017-03-31 -112 $6.29 $0
Itau Unibanco Holding S A 2017-03-31 -850 $6.29 $-5
Jaffetilchin Investment Partners Llc 2017-03-31 -2,320 $6.29 $-14
Jane Street Group Llc 2017-03-31 -3,049 $6.29 $-19
Jarislowsky Fraser Ltd 2017-03-31 -4,650 $6.29 $-29
Kentucky Retirement Systems 2017-03-31 -1,245 $6.29 $-7
Kentucky Retirement Systems Insurance Trust Fund 2017-03-31 -771 $6.29 $-4
Ladenburg Thalmann Financial Services Inc 2017-03-31 3,408 $6.29 $21
Laffer Investments 2017-03-31 0 $6.29 $0
Lenox Wealth Management Inc 2017-03-31 -64 $6.29 $0
Loomis Sayles Co L P 2017-03-31 501 $6.29 $3
Lowe Brockenbrough Co Inc 2017-03-31 -460 $6.29 $-2
Mason Street Advisors Llc 2017-03-31 36 $6.29 $0
Mckinley Capital Management Llc Delaware 2017-03-31 -3,430 $6.29 $-21
Meadow Creek Investment Management Llc 2017-03-31 -15,928 $6.29 $-100
Moloney Securities Asset Management Llc 2017-03-31 0 $6.29 $0
Monroe Bank Trust Mi 2017-03-31 0 $6.29 $0
Montecito Bank Trust 2017-03-31 -1,765 $6.29 $-11
Northwestern Mutual Investment Management Company Llc 2017-03-31 11,874 $6.29 $74
Northwestern Mutual Wealth Management Co 2017-03-31 -232 $6.29 $-1
Paloma Partners Management Co 2017-03-31 14,431 $6.29 $90
Picton Mahoney Asset Management 2017-03-31 109,100 $6.29 $686
Piedmont Investment Advisors Llc 2017-03-31 7,843 $6.29 $49
Pinkerton Retirement Specialists Llc 2017-03-31 -1,390 $6.29 $-8
Polaris Capital Management Llc 2017-03-31 700 $6.29 $4
Proficio Capital Partners Llc 2017-03-31 16 $6.29 $0
Public Employees Retirement System Of Ohio 2017-03-31 1,238 $6.29 $7
Qcm Cayman Ltd 2017-03-31 3,280 $6.29 $20
Raymond James Associates 2017-03-31 -24,760 $6.29 $-155
Riverhead Capital Management Llc 2017-03-31 -12,501 $6.29 $-78
River Wealth Advisors Llc 2017-03-31 -86 $6.29 $0
Rothschild Asset Management Inc 2017-03-31 -1,222 $6.29 $-7
Schnieders Capital Management Llc 2017-03-31 -170 $6.29 $-1
Sciencast Management Lp 2017-03-31 -2,200 $6.29 $-13
Seven Eight Capital Lp 2017-03-31 -698 $6.29 $-4
Silvercrest Asset Management Group Llc 2017-03-31 -124 $6.29 $0
Srs Capital Advisors Inc 2017-03-31 0 $6.29 $0
Stifel Financial Corp 2017-03-31 -5,817 $6.29 $-36
Summit Global Investments 2017-03-31 4,100 $6.29 $25
Two Sigma Securities Llc 2017-03-31 2,330 $6.29 $14
United Capital Financial Advisers Llc 2017-03-31 4,826 $6.29 $30
Veritable L P 2017-03-31 11 $6.29 $0
Verition Fund Management Llc 2017-03-31 -2,680 $6.29 $-16
Voloridge Investment Management Llc 2017-03-31 -144,229 $6.29 $-907
Wasatch Advisors Inc 2017-03-31 -14,276 $6.29 $-89
Waters Parkerson Co Llc 2017-03-31 0 $6.29 $0
Wbi Investments Inc 2017-03-31 257 $6.29 $1
Westside Investment Management Inc 2017-03-31 -125 $6.29 $0
Yorkbridge Wealth Partners Llc 2017-03-31 18 $6.29 $0